sensor_id;sensor_type;location;lat;lon;timestamp;P1;durP1;ratioP1;P2;durP2;ratioP2
77409;SDS011;66481;51.332;22.804;2022-12-29T11:29:55;8.32;;;6.32;;
77409;SDS011;66481;51.332;22.804;2022-12-29T11:32:22;8.30;;;6.22;;
77409;SDS011;66481;51.332;22.804;2022-12-29T11:34:50;10.10;;;5.18;;
77409;SDS011;66481;51.332;22.804;2022-12-29T11:37:49;7.88;;;5.50;;
77409;SDS011;66481;51.332;22.804;2022-12-29T11:40:18;9.25;;;5.90;;
77409;SDS011;66481;51.332;22.804;2022-12-29T11:42:50;8.80;;;5.55;;
77409;SDS011;66481;51.332;22.804;2022-12-29T11:45:23;8.30;;;5.13;;
77409;SDS011;66481;51.332;22.804;2022-12-29T11:47:54;8.07;;;6.22;;
77409;SDS011;66481;51.332;22.804;2022-12-29T11:50:31;8.05;;;5.72;;
77409;SDS011;66481;51.332;22.804;2022-12-29T11:52:58;8.00;;;6.65;;
77409;SDS011;66481;51.332;22.804;2022-12-29T11:55:29;7.22;;;5.50;;
77409;SDS011;66481;51.332;22.804;2022-12-29T11:57:57;6.88;;;5.40;;
77409;SDS011;66481;51.332;22.804;2022-12-29T12:00:27;9.90;;;5.95;;
77409;SDS011;66481;51.332;22.804;2022-12-29T12:07:59;7.38;;;5.35;;
77409;SDS011;66481;51.332;22.804;2022-12-29T12:10:27;7.78;;;5.18;;
77409;SDS011;66481;51.332;22.804;2022-12-29T12:15:25;8.52;;;5.85;;
77409;SDS011;66481;51.332;22.804;2022-12-29T12:18:00;9.93;;;7.20;;
77409;SDS011;66481;51.332;22.804;2022-12-29T12:23:38;7.93;;;5.78;;
77409;SDS011;66481;51.332;22.804;2022-12-29T12:26:15;8.98;;;6.10;;
77409;SDS011;66481;51.332;22.804;2022-12-29T12:34:43;11.95;;;6.60;;
77409;SDS011;66481;51.332;22.804;2022-12-29T12:37:18;14.20;;;7.68;;
77409;SDS011;66481;51.332;22.804;2022-12-29T12:48:58;7.47;;;5.28;;
77409;SDS011;66481;51.332;22.804;2022-12-29T13:08:56;11.75;;;7.13;;
77409;SDS011;66481;51.332;22.804;2022-12-29T13:29:54;9.38;;;7.15;;
77409;SDS011;66481;51.332;22.804;2022-12-29T13:35:33;10.40;;;7.85;;
77409;SDS011;66481;51.332;22.804;2022-12-29T13:38:18;12.20;;;8.02;;
77409;SDS011;66481;51.332;22.804;2022-12-29T13:40:47;11.65;;;8.25;;
77409;SDS011;66481;51.332;22.804;2022-12-29T13:43:18;9.60;;;7.70;;
77409;SDS011;66481;51.332;22.804;2022-12-29T13:45:55;12.10;;;8.35;;
77409;SDS011;66481;51.332;22.804;2022-12-29T13:48:35;14.80;;;9.65;;
77409;SDS011;66481;51.332;22.804;2022-12-29T13:51:05;10.48;;;7.70;;
77409;SDS011;66481;51.332;22.804;2022-12-29T13:53:54;13.55;;;8.60;;
77409;SDS011;66481;51.332;22.804;2022-12-29T13:56:24;11.65;;;9.43;;
77409;SDS011;66481;51.332;22.804;2022-12-29T13:59:44;12.23;;;8.63;;
77409;SDS011;66481;51.332;22.804;2022-12-29T14:02:08;12.70;;;8.10;;
77409;SDS011;66481;51.332;22.804;2022-12-29T14:05:04;12.38;;;9.35;;
77409;SDS011;66481;51.332;22.804;2022-12-29T14:07:56;9.82;;;7.30;;
77409;SDS011;66481;51.332;22.804;2022-12-29T14:10:38;9.48;;;7.30;;
77409;SDS011;66481;51.332;22.804;2022-12-29T14:13:16;10.15;;;6.88;;
77409;SDS011;66481;51.332;22.804;2022-12-29T14:15:50;10.60;;;8.38;;
77409;SDS011;66481;51.332;22.804;2022-12-29T14:18:21;8.98;;;7.80;;
77409;SDS011;66481;51.332;22.804;2022-12-29T14:20:59;10.75;;;8.30;;
77409;SDS011;66481;51.332;22.804;2022-12-29T14:23:37;11.88;;;6.95;;
77409;SDS011;66481;51.332;22.804;2022-12-29T14:26:10;12.90;;;7.93;;
77409;SDS011;66481;51.332;22.804;2022-12-29T14:28:41;11.48;;;8.40;;
77409;SDS011;66481;51.332;22.804;2022-12-29T14:36:37;14.55;;;9.18;;
77409;SDS011;66481;51.332;22.804;2022-12-29T14:39:04;13.85;;;10.73;;
77409;SDS011;66481;51.332;22.804;2022-12-29T14:45:00;13.90;;;8.27;;
77409;SDS011;66481;51.332;22.804;2022-12-29T14:50:22;13.77;;;10.18;;
77409;SDS011;66481;51.332;22.804;2022-12-29T14:58:14;13.05;;;8.45;;
77409;SDS011;66481;51.332;22.804;2022-12-29T15:00:43;12.05;;;9.77;;
77409;SDS011;66481;51.332;22.804;2022-12-29T15:03:14;16.65;;;9.32;;
77409;SDS011;66481;51.332;22.804;2022-12-29T15:05:43;14.98;;;10.27;;
77409;SDS011;66481;51.332;22.804;2022-12-29T15:08:16;16.98;;;11.20;;
77409;SDS011;66481;51.332;22.804;2022-12-29T15:10:45;11.95;;;7.10;;
77409;SDS011;66481;51.332;22.804;2022-12-29T15:13:20;17.58;;;10.35;;
77409;SDS011;66481;51.332;22.804;2022-12-29T15:15:48;16.42;;;10.20;;
77409;SDS011;66481;51.332;22.804;2022-12-29T15:18:28;18.85;;;11.32;;
77409;SDS011;66481;51.332;22.804;2022-12-29T15:20:59;12.27;;;9.85;;
77409;SDS011;66481;51.332;22.804;2022-12-29T15:23:28;12.52;;;9.90;;
77409;SDS011;66481;51.332;22.804;2022-12-29T15:26:01;12.65;;;9.82;;
77409;SDS011;66481;51.332;22.804;2022-12-29T15:28:30;13.30;;;10.02;;
77409;SDS011;66481;51.332;22.804;2022-12-29T15:31:10;14.88;;;10.43;;
77409;SDS011;66481;51.332;22.804;2022-12-29T15:33:42;13.57;;;10.02;;
77409;SDS011;66481;51.332;22.804;2022-12-29T15:36:11;13.93;;;7.63;;
77409;SDS011;66481;51.332;22.804;2022-12-29T15:38:39;13.18;;;10.27;;
77409;SDS011;66481;51.332;22.804;2022-12-29T15:41:18;15.18;;;9.00;;
77409;SDS011;66481;51.332;22.804;2022-12-29T15:46:42;12.13;;;8.65;;
77409;SDS011;66481;51.332;22.804;2022-12-29T15:49:09;16.13;;;11.55;;
77409;SDS011;66481;51.332;22.804;2022-12-29T15:51:39;14.70;;;10.32;;
77409;SDS011;66481;51.332;22.804;2022-12-29T15:54:06;15.77;;;11.38;;
77409;SDS011;66481;51.332;22.804;2022-12-29T15:56:43;16.50;;;11.20;;
77409;SDS011;66481;51.332;22.804;2022-12-29T15:59:30;11.77;;;8.65;;
77409;SDS011;66481;51.332;22.804;2022-12-29T16:01:59;16.40;;;11.48;;
77409;SDS011;66481;51.332;22.804;2022-12-29T16:04:31;17.65;;;10.57;;
77409;SDS011;66481;51.332;22.804;2022-12-29T16:07:02;25.35;;;13.70;;
77409;SDS011;66481;51.332;22.804;2022-12-29T16:09:33;20.60;;;15.25;;
77409;SDS011;66481;51.332;22.804;2022-12-29T16:12:04;16.58;;;11.50;;
77409;SDS011;66481;51.332;22.804;2022-12-29T16:14:43;18.83;;;11.45;;
77409;SDS011;66481;51.332;22.804;2022-12-29T16:17:12;17.05;;;11.48;;
77409;SDS011;66481;51.332;22.804;2022-12-29T16:19:41;20.23;;;12.70;;
77409;SDS011;66481;51.332;22.804;2022-12-29T16:22:17;16.83;;;10.50;;
77409;SDS011;66481;51.332;22.804;2022-12-29T16:24:49;21.85;;;13.35;;
77409;SDS011;66481;51.332;22.804;2022-12-29T16:27:19;18.10;;;11.70;;
77409;SDS011;66481;51.332;22.804;2022-12-29T16:30:06;21.63;;;12.02;;
77409;SDS011;66481;51.332;22.804;2022-12-29T16:32:46;16.63;;;11.13;;
77409;SDS011;66481;51.332;22.804;2022-12-29T16:35:20;17.30;;;9.65;;
77409;SDS011;66481;51.332;22.804;2022-12-29T16:37:49;18.40;;;11.15;;
77409;SDS011;66481;51.332;22.804;2022-12-29T16:40:49;17.63;;;9.70;;
77409;SDS011;66481;51.332;22.804;2022-12-29T16:43:23;15.73;;;12.20;;
77409;SDS011;66481;51.332;22.804;2022-12-29T16:48:20;12.52;;;8.65;;
77409;SDS011;66481;51.332;22.804;2022-12-29T16:50:50;13.05;;;8.95;;
77409;SDS011;66481;51.332;22.804;2022-12-29T16:53:21;13.13;;;9.77;;
77409;SDS011;66481;51.332;22.804;2022-12-29T16:55:51;12.30;;;7.80;;
77409;SDS011;66481;51.332;22.804;2022-12-29T16:58:19;15.68;;;9.57;;
77409;SDS011;66481;51.332;22.804;2022-12-29T17:00:49;12.98;;;8.20;;
77409;SDS011;66481;51.332;22.804;2022-12-29T17:03:20;17.60;;;12.20;;
77409;SDS011;66481;51.332;22.804;2022-12-29T17:05:47;12.43;;;8.82;;
77409;SDS011;66481;51.332;22.804;2022-12-29T17:08:17;15.00;;;9.13;;
77409;SDS011;66481;51.332;22.804;2022-12-29T17:10:51;12.90;;;10.77;;
77409;SDS011;66481;51.332;22.804;2022-12-29T17:13:37;13.40;;;8.20;;
77409;SDS011;66481;51.332;22.804;2022-12-29T17:16:07;11.82;;;8.73;;
77409;SDS011;66481;51.332;22.804;2022-12-29T17:18:36;15.57;;;10.52;;
77409;SDS011;66481;51.332;22.804;2022-12-29T17:21:04;11.70;;;8.85;;
77409;SDS011;66481;51.332;22.804;2022-12-29T17:23:31;11.98;;;9.65;;
77409;SDS011;66481;51.332;22.804;2022-12-29T17:25:59;13.60;;;9.65;;
77409;SDS011;66481;51.332;22.804;2022-12-29T17:28:26;13.63;;;8.50;;
77409;SDS011;66481;51.332;22.804;2022-12-29T17:30:58;13.20;;;9.82;;
77409;SDS011;66481;51.332;22.804;2022-12-29T17:33:28;13.43;;;9.65;;
77409;SDS011;66481;51.332;22.804;2022-12-29T17:35:59;19.70;;;9.48;;
77409;SDS011;66481;51.332;22.804;2022-12-29T17:38:27;15.48;;;8.93;;
77409;SDS011;66481;51.332;22.804;2022-12-29T17:40:54;15.05;;;12.07;;
77409;SDS011;66481;51.332;22.804;2022-12-29T17:43:21;16.20;;;9.13;;
77409;SDS011;66481;51.332;22.804;2022-12-29T17:45:54;13.68;;;8.48;;
77409;SDS011;66481;51.332;22.804;2022-12-29T17:48:23;13.25;;;9.57;;
77409;SDS011;66481;51.332;22.804;2022-12-29T17:50:50;12.68;;;9.70;;
77409;SDS011;66481;51.332;22.804;2022-12-29T17:55:46;13.65;;;10.05;;
77409;SDS011;66481;51.332;22.804;2022-12-29T18:00:43;13.90;;;9.57;;
77409;SDS011;66481;51.332;22.804;2022-12-29T18:03:29;15.50;;;9.75;;
77409;SDS011;66481;51.332;22.804;2022-12-29T18:05:57;10.93;;;8.23;;
77409;SDS011;66481;51.332;22.804;2022-12-29T18:08:23;18.33;;;11.30;;
77409;SDS011;66481;51.332;22.804;2022-12-29T18:10:50;14.35;;;10.80;;
77409;SDS011;66481;51.332;22.804;2022-12-29T18:13:21;12.00;;;9.88;;
77409;SDS011;66481;51.332;22.804;2022-12-29T18:15:51;14.27;;;11.70;;
77409;SDS011;66481;51.332;22.804;2022-12-29T18:18:19;17.13;;;12.32;;
77409;SDS011;66481;51.332;22.804;2022-12-29T18:20:48;15.23;;;10.80;;
77409;SDS011;66481;51.332;22.804;2022-12-29T18:23:19;15.20;;;8.95;;
77409;SDS011;66481;51.332;22.804;2022-12-29T18:25:52;17.80;;;12.15;;
77409;SDS011;66481;51.332;22.804;2022-12-29T18:28:21;15.82;;;10.27;;
77409;SDS011;66481;51.332;22.804;2022-12-29T18:30:48;17.45;;;11.80;;
77409;SDS011;66481;51.332;22.804;2022-12-29T18:33:15;14.98;;;9.88;;
77409;SDS011;66481;51.332;22.804;2022-12-29T18:36:02;16.98;;;11.30;;
77409;SDS011;66481;51.332;22.804;2022-12-29T18:38:29;15.32;;;8.38;;
77409;SDS011;66481;51.332;22.804;2022-12-29T18:40:58;16.10;;;12.23;;
77409;SDS011;66481;51.332;22.804;2022-12-29T18:43:27;11.93;;;9.52;;
77409;SDS011;66481;51.332;22.804;2022-12-29T18:45:54;17.42;;;9.10;;
77409;SDS011;66481;51.332;22.804;2022-12-29T18:48:20;14.95;;;10.13;;
77409;SDS011;66481;51.332;22.804;2022-12-29T18:50:47;11.70;;;8.50;;
77409;SDS011;66481;51.332;22.804;2022-12-29T18:53:18;15.60;;;9.80;;
77409;SDS011;66481;51.332;22.804;2022-12-29T18:55:46;13.57;;;9.88;;
77409;SDS011;66481;51.332;22.804;2022-12-29T18:58:13;14.98;;;9.55;;
77409;SDS011;66481;51.332;22.804;2022-12-29T19:00:40;15.75;;;11.43;;
77409;SDS011;66481;51.332;22.804;2022-12-29T19:03:08;18.25;;;11.35;;
77409;SDS011;66481;51.332;22.804;2022-12-29T19:05:38;15.88;;;11.68;;
77409;SDS011;66481;51.332;22.804;2022-12-29T19:08:06;19.77;;;11.68;;
77409;SDS011;66481;51.332;22.804;2022-12-29T19:10:33;14.77;;;11.68;;
77409;SDS011;66481;51.332;22.804;2022-12-29T19:13:00;14.15;;;10.65;;
77409;SDS011;66481;51.332;22.804;2022-12-29T19:15:30;17.70;;;11.10;;
77409;SDS011;66481;51.332;22.804;2022-12-29T19:20:30;15.07;;;9.93;;
77409;SDS011;66481;51.332;22.804;2022-12-29T19:23:00;20.38;;;13.07;;
77409;SDS011;66481;51.332;22.804;2022-12-29T19:25:31;18.85;;;12.68;;
77409;SDS011;66481;51.332;22.804;2022-12-29T19:27:58;16.95;;;11.68;;
77409;SDS011;66481;51.332;22.804;2022-12-29T19:30:25;15.57;;;9.52;;
77409;SDS011;66481;51.332;22.804;2022-12-29T19:32:53;18.10;;;12.52;;
77409;SDS011;66481;51.332;22.804;2022-12-29T19:35:20;14.82;;;10.00;;
77409;SDS011;66481;51.332;22.804;2022-12-29T19:37:48;18.63;;;11.23;;
77409;SDS011;66481;51.332;22.804;2022-12-29T19:40:15;13.93;;;10.50;;
77409;SDS011;66481;51.332;22.804;2022-12-29T19:42:44;18.83;;;12.02;;
77409;SDS011;66481;51.332;22.804;2022-12-29T19:45:11;16.27;;;10.38;;
77409;SDS011;66481;51.332;22.804;2022-12-29T19:47:37;16.80;;;10.98;;
77409;SDS011;66481;51.332;22.804;2022-12-29T19:50:04;17.60;;;12.02;;
77409;SDS011;66481;51.332;22.804;2022-12-29T19:52:32;14.40;;;11.00;;
77409;SDS011;66481;51.332;22.804;2022-12-29T19:54:59;20.42;;;11.27;;
77409;SDS011;66481;51.332;22.804;2022-12-29T19:57:25;13.27;;;9.02;;
77409;SDS011;66481;51.332;22.804;2022-12-29T19:59:52;15.07;;;10.75;;
77409;SDS011;66481;51.332;22.804;2022-12-29T20:02:22;15.02;;;9.93;;
77409;SDS011;66481;51.332;22.804;2022-12-29T20:04:57;16.67;;;11.90;;
77409;SDS011;66481;51.332;22.804;2022-12-29T20:07:23;13.57;;;10.75;;
77409;SDS011;66481;51.332;22.804;2022-12-29T20:09:51;15.98;;;9.25;;
77409;SDS011;66481;51.332;22.804;2022-12-29T20:12:18;13.27;;;9.77;;
77409;SDS011;66481;51.332;22.804;2022-12-29T20:14:46;16.15;;;9.75;;
77409;SDS011;66481;51.332;22.804;2022-12-29T20:17:13;12.93;;;9.35;;
77409;SDS011;66481;51.332;22.804;2022-12-29T20:19:40;18.70;;;10.48;;
77409;SDS011;66481;51.332;22.804;2022-12-29T20:22:07;15.63;;;9.88;;
77409;SDS011;66481;51.332;22.804;2022-12-29T20:24:36;15.80;;;11.52;;
77409;SDS011;66481;51.332;22.804;2022-12-29T20:27:04;10.68;;;8.82;;
77409;SDS011;66481;51.332;22.804;2022-12-29T20:29:35;15.60;;;10.90;;
77409;SDS011;66481;51.332;22.804;2022-12-29T20:32:14;15.40;;;10.40;;
77409;SDS011;66481;51.332;22.804;2022-12-29T20:34:44;17.35;;;10.70;;
77409;SDS011;66481;51.332;22.804;2022-12-29T20:37:12;17.77;;;12.02;;
77409;SDS011;66481;51.332;22.804;2022-12-29T20:39:39;18.35;;;9.40;;
77409;SDS011;66481;51.332;22.804;2022-12-29T20:42:07;17.35;;;11.95;;
77409;SDS011;66481;51.332;22.804;2022-12-29T20:44:33;16.70;;;10.68;;
77409;SDS011;66481;51.332;22.804;2022-12-29T20:47:01;15.40;;;11.63;;
77409;SDS011;66481;51.332;22.804;2022-12-29T20:49:28;13.38;;;10.15;;
77409;SDS011;66481;51.332;22.804;2022-12-29T20:51:56;16.42;;;11.10;;
77409;SDS011;66481;51.332;22.804;2022-12-29T20:54:23;15.68;;;11.88;;
77409;SDS011;66481;51.332;22.804;2022-12-29T20:56:49;12.68;;;9.40;;
77409;SDS011;66481;51.332;22.804;2022-12-29T20:59:16;13.05;;;9.38;;
77409;SDS011;66481;51.332;22.804;2022-12-29T21:01:43;15.25;;;11.10;;
77409;SDS011;66481;51.332;22.804;2022-12-29T21:04:09;15.68;;;10.90;;
77409;SDS011;66481;51.332;22.804;2022-12-29T21:06:35;14.32;;;8.38;;
77409;SDS011;66481;51.332;22.804;2022-12-29T21:09:02;13.93;;;10.35;;
77409;SDS011;66481;51.332;22.804;2022-12-29T21:11:28;15.60;;;8.68;;
77409;SDS011;66481;51.332;22.804;2022-12-29T21:13:55;12.75;;;9.73;;
77409;SDS011;66481;51.332;22.804;2022-12-29T21:16:21;15.10;;;9.15;;
77409;SDS011;66481;51.332;22.804;2022-12-29T21:18:50;13.45;;;10.23;;
77409;SDS011;66481;51.332;22.804;2022-12-29T21:21:17;13.98;;;10.25;;
77409;SDS011;66481;51.332;22.804;2022-12-29T21:23:48;12.88;;;9.25;;
77409;SDS011;66481;51.332;22.804;2022-12-29T21:26:16;19.83;;;11.57;;
77409;SDS011;66481;51.332;22.804;2022-12-29T21:28:44;18.63;;;13.07;;
77409;SDS011;66481;51.332;22.804;2022-12-29T21:31:24;15.27;;;8.63;;
77409;SDS011;66481;51.332;22.804;2022-12-29T21:33:55;18.13;;;10.25;;
77409;SDS011;66481;51.332;22.804;2022-12-29T21:36:21;14.68;;;10.02;;
77409;SDS011;66481;51.332;22.804;2022-12-29T21:38:48;15.48;;;10.23;;
77409;SDS011;66481;51.332;22.804;2022-12-29T21:41:15;15.60;;;10.40;;
77409;SDS011;66481;51.332;22.804;2022-12-29T21:43:45;18.25;;;10.20;;
77409;SDS011;66481;51.332;22.804;2022-12-29T21:46:31;12.70;;;9.65;;
77409;SDS011;66481;51.332;22.804;2022-12-29T21:48:59;14.90;;;10.65;;
77409;SDS011;66481;51.332;22.804;2022-12-29T21:51:24;12.60;;;9.52;;
77409;SDS011;66481;51.332;22.804;2022-12-29T21:54:09;14.40;;;8.38;;
77409;SDS011;66481;51.332;22.804;2022-12-29T21:56:54;15.63;;;10.32;;
77409;SDS011;66481;51.332;22.804;2022-12-29T21:59:20;16.70;;;9.13;;
77409;SDS011;66481;51.332;22.804;2022-12-29T22:02:09;14.93;;;9.77;;
77409;SDS011;66481;51.332;22.804;2022-12-29T22:05:06;14.15;;;9.60;;
77409;SDS011;66481;51.332;22.804;2022-12-29T22:07:52;14.15;;;10.18;;
77409;SDS011;66481;51.332;22.804;2022-12-29T22:10:41;12.93;;;8.85;;
77409;SDS011;66481;51.332;22.804;2022-12-29T22:13:29;15.07;;;10.48;;
77409;SDS011;66481;51.332;22.804;2022-12-29T22:15:56;13.23;;;10.32;;
77409;SDS011;66481;51.332;22.804;2022-12-29T22:18:22;15.88;;;9.68;;
77409;SDS011;66481;51.332;22.804;2022-12-29T22:20:50;14.32;;;8.93;;
77409;SDS011;66481;51.332;22.804;2022-12-29T22:23:15;16.67;;;10.07;;
77409;SDS011;66481;51.332;22.804;2022-12-29T22:25:42;15.13;;;10.52;;
77409;SDS011;66481;51.332;22.804;2022-12-29T22:28:09;14.50;;;9.27;;
77409;SDS011;66481;51.332;22.804;2022-12-29T22:30:35;14.40;;;9.55;;
77409;SDS011;66481;51.332;22.804;2022-12-29T22:33:01;14.80;;;9.20;;
77409;SDS011;66481;51.332;22.804;2022-12-29T22:35:28;17.00;;;10.43;;
77409;SDS011;66481;51.332;22.804;2022-12-29T22:37:54;19.42;;;10.30;;
77409;SDS011;66481;51.332;22.804;2022-12-29T22:40:20;14.95;;;9.32;;
77409;SDS011;66481;51.332;22.804;2022-12-29T22:42:47;14.82;;;9.30;;
77409;SDS011;66481;51.332;22.804;2022-12-29T22:45:13;15.40;;;10.25;;
77409;SDS011;66481;51.332;22.804;2022-12-29T22:47:39;12.18;;;9.25;;
77409;SDS011;66481;51.332;22.804;2022-12-29T22:50:05;12.82;;;9.05;;
77409;SDS011;66481;51.332;22.804;2022-12-29T22:52:31;11.35;;;8.45;;
77409;SDS011;66481;51.332;22.804;2022-12-29T22:54:58;12.93;;;9.77;;
77409;SDS011;66481;51.332;22.804;2022-12-29T22:57:24;15.05;;;8.95;;
77409;SDS011;66481;51.332;22.804;2022-12-29T22:59:50;13.20;;;9.52;;
77409;SDS011;66481;51.332;22.804;2022-12-29T23:02:16;15.20;;;9.82;;
77409;SDS011;66481;51.332;22.804;2022-12-29T23:04:42;14.05;;;10.10;;
77409;SDS011;66481;51.332;22.804;2022-12-29T23:07:07;15.02;;;9.48;;
77409;SDS011;66481;51.332;22.804;2022-12-29T23:09:34;14.73;;;10.50;;
77409;SDS011;66481;51.332;22.804;2022-12-29T23:12:00;13.98;;;9.18;;
77409;SDS011;66481;51.332;22.804;2022-12-29T23:14:26;12.38;;;9.00;;
77409;SDS011;66481;51.332;22.804;2022-12-29T23:16:52;12.10;;;7.68;;
77409;SDS011;66481;51.332;22.804;2022-12-29T23:19:18;13.55;;;8.32;;
77409;SDS011;66481;51.332;22.804;2022-12-29T23:21:44;13.07;;;8.85;;
77409;SDS011;66481;51.332;22.804;2022-12-29T23:24:11;16.35;;;10.90;;
77409;SDS011;66481;51.332;22.804;2022-12-29T23:26:42;12.05;;;7.80;;
77409;SDS011;66481;51.332;22.804;2022-12-29T23:29:12;15.98;;;10.23;;
77409;SDS011;66481;51.332;22.804;2022-12-29T23:31:39;14.52;;;10.50;;
77409;SDS011;66481;51.332;22.804;2022-12-29T23:34:06;13.77;;;9.15;;
77409;SDS011;66481;51.332;22.804;2022-12-29T23:36:34;14.85;;;11.15;;
77409;SDS011;66481;51.332;22.804;2022-12-29T23:39:01;14.35;;;9.50;;
77409;SDS011;66481;51.332;22.804;2022-12-29T23:41:28;14.95;;;9.50;;
77409;SDS011;66481;51.332;22.804;2022-12-29T23:43:54;16.10;;;9.63;;
77409;SDS011;66481;51.332;22.804;2022-12-29T23:46:21;13.73;;;9.27;;
77409;SDS011;66481;51.332;22.804;2022-12-29T23:48:49;15.00;;;9.63;;
77409;SDS011;66481;51.332;22.804;2022-12-29T23:51:15;12.88;;;9.07;;
77409;SDS011;66481;51.332;22.804;2022-12-29T23:53:42;13.80;;;9.07;;
77409;SDS011;66481;51.332;22.804;2022-12-29T23:56:13;14.25;;;9.07;;
77409;SDS011;66481;51.332;22.804;2022-12-29T23:58:41;13.48;;;8.88;;
